createdAt,value
2018-05-03T00:00:55.459Z,99.90
2018-05-03T00:03:22.981Z,99.90
2018-05-03T00:05:50.520Z,99.90
2018-05-03T00:08:18.047Z,99.90
2018-05-03T00:10:46.347Z,99.90
2018-05-03T00:13:13.842Z,99.90
2018-05-03T00:15:41.373Z,99.90
2018-05-03T00:18:08.874Z,99.90
2018-05-03T00:20:36.453Z,99.90
2018-05-03T00:23:03.960Z,99.90
2018-05-03T00:25:31.518Z,99.90
2018-05-03T00:27:59.082Z,99.90
2018-05-03T00:30:26.580Z,99.90
2018-05-03T00:32:54.925Z,99.90
2018-05-03T00:35:22.431Z,99.90
2018-05-03T00:37:49.982Z,99.90
2018-05-03T00:40:18.246Z,99.90
2018-05-03T00:42:45.798Z,99.90
2018-05-03T00:45:13.301Z,99.90
2018-05-03T00:47:40.843Z,99.90
2018-05-03T00:50:09.114Z,99.90
2018-05-03T00:52:37.410Z,99.90
2018-05-03T00:55:04.902Z,99.90
2018-05-03T00:57:32.435Z,99.90
2018-05-03T00:59:59.940Z,99.90
2018-05-03T01:02:27.534Z,99.90
2018-05-03T01:04:55.052Z,99.90
2018-05-03T01:07:22.582Z,99.90
2018-05-03T01:09:50.078Z,99.90
2018-05-03T01:12:17.833Z,99.90
2018-05-03T01:14:45.328Z,99.90
2018-05-03T01:17:13.647Z,99.90
2018-05-03T01:19:41.134Z,99.90
2018-05-03T01:22:08.657Z,99.90
2018-05-03T01:24:36.191Z,99.90
2018-05-03T01:27:04.542Z,99.90
2018-05-03T01:29:32.082Z,99.90
2018-05-03T01:31:59.587Z,99.90
2018-05-03T01:34:27.886Z,99.90
2018-05-03T01:36:55.386Z,99.90
2018-05-03T01:39:22.921Z,99.90
2018-05-03T01:41:50.428Z,99.90
2018-05-03T01:44:18.726Z,99.90
2018-05-03T01:46:46.231Z,99.90
2018-05-03T01:49:13.771Z,99.90
2018-05-03T01:51:41.261Z,99.90
2018-05-03T01:54:08.753Z,99.90
2018-05-03T01:56:36.299Z,99.90
2018-05-03T01:59:03.803Z,99.90
2018-05-03T02:01:31.346Z,99.90
2018-05-03T02:03:58.846Z,99.90
2018-05-03T02:06:26.387Z,99.90
2018-05-03T02:08:53.889Z,99.90
2018-05-03T02:11:22.192Z,99.90
2018-05-03T02:13:49.688Z,99.90
2018-05-03T02:16:17.223Z,99.90
2018-05-03T02:18:44.721Z,99.90
2018-05-03T02:21:12.283Z,99.90
2018-05-03T02:23:39.789Z,99.90
2018-05-03T02:26:07.326Z,99.90
2018-05-03T02:28:35.648Z,99.90
2018-05-03T02:31:03.196Z,99.90
2018-05-03T02:33:30.699Z,99.90
2018-05-03T02:35:58.207Z,99.90
2018-05-03T02:38:25.763Z,99.90
2018-05-03T02:40:53.272Z,99.90
2018-05-03T02:43:20.807Z,99.90
2018-05-03T02:45:48.324Z,99.90
2018-05-03T02:48:15.854Z,99.90
2018-05-03T02:50:43.353Z,99.90
2018-05-03T02:53:10.896Z,99.90
2018-05-03T02:55:38.405Z,99.90
2018-05-03T02:58:17.944Z,99.90
2018-05-03T03:01:02.916Z,99.90
2018-05-03T03:03:47.957Z,99.90
2018-05-03T03:06:33.082Z,99.90
2018-05-03T03:12:34.630Z,99.90
2018-05-03T03:15:19.705Z,99.90
2018-05-03T03:21:15.805Z,99.90
2018-05-03T03:24:00.822Z,99.90
2018-05-03T03:26:59.913Z,99.90
2018-05-03T03:29:44.064Z,99.90
2018-05-03T03:32:23.364Z,99.90
2018-05-03T03:38:20.741Z,99.90
2018-05-03T03:40:59.948Z,99.90
2018-05-03T03:43:39.280Z,99.90
2018-05-03T03:46:06.786Z,99.90
2018-05-03T03:48:34.334Z,99.90
2018-05-03T03:51:01.842Z,99.90
2018-05-03T03:53:29.386Z,99.90
2018-05-03T03:55:56.905Z,99.90
2018-05-03T03:58:24.449Z,99.90
2018-05-03T04:00:51.954Z,99.90
2018-05-03T04:03:19.469Z,99.90
2018-05-03T04:05:47.012Z,99.90
2018-05-03T04:08:14.526Z,99.90
2018-05-03T04:10:42.056Z,99.90
2018-05-03T04:13:09.550Z,99.90
2018-05-03T04:15:37.094Z,99.90
2018-05-03T04:18:16.454Z,99.90
2018-05-03T04:21:08.532Z,99.90
2018-05-03T04:23:47.798Z,99.90
2018-05-03T04:26:15.329Z,99.90
2018-05-03T04:28:42.847Z,99.90
2018-05-03T04:31:11.889Z,99.90
2018-05-03T04:33:39.375Z,99.90
2018-05-03T04:36:06.906Z,99.90
2018-05-03T04:38:34.410Z,99.90
2018-05-03T04:41:01.948Z,99.90
2018-05-03T04:43:29.443Z,99.90
2018-05-03T04:45:57.752Z,99.90
2018-05-03T04:48:25.293Z,99.90
2018-05-03T04:50:52.802Z,99.90
2018-05-03T04:53:20.295Z,99.90
2018-05-03T04:55:47.854Z,99.90
2018-05-03T04:58:15.348Z,99.90
2018-05-03T05:00:42.848Z,99.90
2018-05-03T05:03:10.390Z,99.90
2018-05-03T05:05:37.887Z,99.90
2018-05-03T05:08:05.427Z,99.90
2018-05-03T05:10:33.025Z,99.90
2018-05-03T05:13:00.498Z,99.90
2018-05-03T05:15:28.015Z,99.90
2018-05-03T05:17:55.612Z,99.90
2018-05-03T05:20:23.114Z,99.90
2018-05-03T05:22:50.675Z,99.90
2018-05-03T05:25:18.179Z,99.90
2018-05-03T05:27:46.480Z,99.90
2018-05-03T05:30:13.991Z,99.90
2018-05-03T05:32:41.549Z,99.90
2018-05-03T05:35:09.047Z,99.90
2018-05-03T05:37:36.549Z,99.90
2018-05-03T05:40:04.117Z,99.90
2018-05-03T05:42:31.623Z,99.90
2018-05-03T05:44:59.170Z,99.90
2018-05-03T05:47:26.675Z,99.90
2018-05-03T05:49:54.235Z,99.90
2018-05-03T05:52:21.740Z,99.90
2018-05-03T05:54:49.263Z,99.90
2018-05-03T05:57:16.764Z,99.90
2018-05-03T05:59:44.298Z,99.90
2018-05-03T06:02:11.786Z,99.90
2018-05-03T06:04:39.337Z,99.90
2018-05-03T06:07:07.598Z,99.90
2018-05-03T06:09:35.891Z,99.90
2018-05-03T06:12:04.161Z,99.90
2018-05-03T06:14:32.475Z,99.90
2018-05-03T06:16:59.967Z,99.90
2018-05-03T06:19:27.521Z,99.90
2018-05-03T06:21:55.010Z,99.90
2018-05-03T06:24:23.315Z,99.90
2018-05-03T06:26:50.814Z,99.90
2018-05-03T06:29:18.310Z,99.90
2018-05-03T06:31:45.874Z,99.90
2018-05-03T06:34:13.403Z,99.90
2018-05-03T06:36:40.941Z,99.90
2018-05-03T06:39:08.444Z,99.90
2018-05-03T06:41:36.745Z,99.90
2018-05-03T06:44:04.254Z,99.90
2018-05-03T06:46:31.868Z,99.90
2018-05-03T06:48:59.353Z,99.90
2018-05-03T06:51:26.946Z,99.90
2018-05-03T06:53:54.418Z,99.90
2018-05-03T06:56:22.727Z,99.90
2018-05-03T06:58:50.238Z,99.90
2018-05-03T07:01:17.784Z,99.90
2018-05-03T07:03:45.279Z,99.90
2018-05-03T07:06:12.814Z,99.90
2018-05-03T07:08:40.318Z,99.90
2018-05-03T07:11:07.852Z,99.90
2018-05-03T07:13:35.368Z,99.90
2018-05-03T07:16:02.914Z,99.90
2018-05-03T07:18:30.418Z,99.90
2018-05-03T07:20:58.739Z,99.90
2018-05-03T07:23:26.286Z,99.90
2018-05-03T07:25:53.810Z,99.90
2018-05-03T07:28:21.315Z,99.90
2018-05-03T07:30:49.651Z,99.90
2018-05-03T07:33:17.968Z,99.90
2018-05-03T07:35:45.482Z,99.90
2018-05-03T07:38:13.144Z,99.90
2018-05-03T07:40:41.317Z,99.90
2018-05-03T07:43:09.642Z,99.90
2018-05-03T07:45:37.331Z,99.90
2018-05-03T07:48:04.870Z,99.90
2018-05-03T07:50:32.377Z,99.90
2018-05-03T07:53:00.676Z,99.90
2018-05-03T07:55:28.178Z,99.90
2018-05-03T07:57:57.230Z,99.90
2018-05-03T08:00:24.727Z,99.90
2018-05-03T08:02:52.257Z,99.90
2018-05-03T08:05:19.753Z,99.90
2018-05-03T08:07:47.303Z,99.90
2018-05-03T08:10:14.822Z,99.90
2018-05-03T08:12:42.418Z,99.90
2018-05-03T08:15:09.928Z,99.90
2018-05-03T08:17:38.248Z,99.90
2018-05-03T08:20:05.766Z,99.90
2018-05-03T08:22:33.275Z,99.90
2018-05-03T08:25:00.872Z,99.90
2018-05-03T08:27:29.007Z,99.90
2018-05-03T08:29:56.550Z,99.90
2018-05-03T08:32:24.051Z,99.90
2018-05-03T08:34:51.605Z,99.90
2018-05-03T08:37:19.127Z,99.90
2018-05-03T08:39:46.667Z,99.90
2018-05-03T08:42:14.167Z,99.90
2018-05-03T08:44:41.713Z,99.90
2018-05-03T08:47:09.233Z,99.90
2018-05-03T08:49:36.815Z,99.90
2018-05-03T08:52:05.122Z,99.90
2018-05-03T08:54:32.672Z,99.90
2018-05-03T08:57:00.174Z,99.90
2018-05-03T08:59:28.482Z,99.90
2018-05-03T09:01:56.115Z,99.90
2018-05-03T09:04:23.575Z,99.90
2018-05-03T09:06:51.847Z,99.90
2018-05-03T09:09:20.155Z,99.90
2018-05-03T09:11:47.652Z,99.90
2018-05-03T09:14:15.360Z,99.90
2018-05-03T09:16:42.868Z,99.90
2018-05-03T09:19:10.419Z,99.90
2018-05-03T09:21:37.995Z,99.90
2018-05-03T09:24:05.517Z,99.90
2018-05-03T09:26:33.057Z,99.90
2018-05-03T09:29:00.556Z,99.90
2018-05-03T09:31:28.094Z,99.90
2018-05-03T09:33:55.607Z,99.90
2018-05-03T09:36:23.177Z,99.90
2018-05-03T09:38:51.449Z,99.90
2018-05-03T09:41:19.751Z,99.90
2018-05-03T09:43:47.268Z,99.90
2018-05-03T09:46:14.806Z,99.90
2018-05-03T09:48:42.310Z,99.90
2018-05-03T09:51:10.612Z,99.90
2018-05-03T09:53:38.113Z,99.90
2018-05-03T09:56:05.659Z,99.90
2018-05-03T09:58:33.188Z,99.90
2018-05-03T10:01:00.746Z,99.90
2018-05-03T10:03:28.254Z,99.90
2018-05-03T10:05:55.785Z,99.90
2018-05-03T10:08:23.493Z,99.90
2018-05-03T10:10:51.002Z,99.90
2018-05-03T10:13:18.597Z,99.90
2018-05-03T10:15:46.071Z,99.90
2018-05-03T10:18:13.671Z,99.90
2018-05-03T10:20:41.891Z,99.90
2018-05-03T10:23:09.419Z,99.90
2018-05-03T10:25:36.928Z,99.90
2018-05-03T10:28:04.494Z,99.90
2018-05-03T10:30:32.782Z,99.90
2018-05-03T10:33:00.324Z,99.90
2018-05-03T10:35:27.859Z,99.90
2018-05-03T10:37:55.424Z,99.90
2018-05-03T10:40:22.935Z,99.90
2018-05-03T10:42:50.480Z,99.90
2018-05-03T10:45:18.241Z,99.90
2018-05-03T10:47:45.880Z,99.90
2018-05-03T10:50:13.379Z,99.90
2018-05-03T10:52:40.931Z,99.90
2018-05-03T10:55:08.467Z,99.90
2018-05-03T10:57:35.978Z,99.90
2018-05-03T11:00:03.521Z,99.90
2018-05-03T11:02:31.038Z,99.90
2018-05-03T11:04:58.590Z,99.90
2018-05-03T11:07:26.877Z,99.90
2018-05-03T11:09:55.184Z,99.90
2018-05-03T11:12:22.695Z,99.90
2018-05-03T11:14:50.233Z,99.90
2018-05-03T11:17:18.622Z,99.90
2018-05-03T11:19:47.667Z,99.90
2018-05-03T11:22:15.175Z,99.90
2018-05-03T11:24:42.714Z,99.90
2018-05-03T11:27:10.242Z,99.90
2018-05-03T11:29:37.790Z,99.90
2018-05-03T11:32:05.318Z,99.90
2018-05-03T11:34:33.975Z,99.90
2018-05-03T11:37:01.559Z,99.90
2018-05-03T11:39:29.003Z,99.90
2018-05-03T11:41:56.552Z,99.90
2018-05-03T11:44:24.047Z,99.90
2018-05-03T11:46:52.363Z,99.90
2018-05-03T11:49:19.872Z,99.90
2018-05-03T11:51:47.429Z,99.90
2018-05-03T11:54:15.716Z,99.90
2018-05-03T11:56:44.032Z,99.90
2018-05-03T11:59:11.935Z,99.90
2018-05-03T12:01:40.604Z,99.90
2018-05-03T12:04:08.193Z,99.90
2018-05-03T12:06:35.824Z,99.90
2018-05-03T12:09:03.330Z,99.90
2018-05-03T12:11:31.607Z,99.90
2018-05-03T12:13:59.912Z,99.90
2018-05-03T12:16:27.412Z,99.90
2018-05-03T12:18:54.976Z,99.40
2018-05-03T12:21:23.517Z,99.10
2018-05-03T12:23:51.050Z,99.10
2018-05-03T12:26:18.563Z,98.80
2018-05-03T12:28:46.097Z,98.90
2018-05-03T12:31:13.647Z,99.60
2018-05-03T12:33:41.215Z,97.40
2018-05-03T12:36:08.714Z,98.50
2018-05-03T12:38:36.254Z,99.00
2018-05-03T12:41:03.757Z,98.70
2018-05-03T12:43:32.057Z,96.30
2018-05-03T12:45:59.565Z,96.30
2018-05-03T12:48:27.115Z,94.30
2018-05-03T12:50:54.619Z,95.40
2018-05-03T12:53:22.173Z,93.80
2018-05-03T12:55:49.711Z,93.40
2018-05-03T12:58:17.320Z,91.00
2018-05-03T13:00:44.892Z,89.80
2018-05-03T13:03:12.409Z,89.30
2018-05-03T13:05:40.047Z,89.10
2018-05-03T13:08:07.566Z,86.50
2018-05-03T13:10:35.149Z,84.90
2018-05-03T13:13:02.690Z,85.50
2018-05-03T13:15:30.196Z,83.50
2018-05-03T13:17:58.502Z,82.00
2018-05-03T13:20:25.997Z,81.90
2018-05-03T13:22:53.533Z,82.70
2018-05-03T13:25:21.093Z,82.60
2018-05-03T13:27:48.576Z,82.80
2018-05-03T13:30:16.150Z,83.40
2018-05-03T13:32:43.688Z,83.90
2018-05-03T13:35:11.211Z,82.90
2018-05-03T13:37:38.769Z,83.40
2018-05-03T13:40:06.287Z,83.30
2018-05-03T13:42:33.889Z,83.00
2018-05-03T13:45:01.393Z,83.30
2018-05-03T13:47:28.989Z,83.20
2018-05-03T13:49:57.260Z,83.70
2018-05-03T13:52:25.580Z,83.20
2018-05-03T13:54:53.077Z,83.20
2018-05-03T13:57:20.630Z,84.10
2018-05-03T13:59:48.669Z,84.00
2018-05-03T14:02:16.261Z,82.40
2018-05-03T14:04:43.737Z,81.90
2018-05-03T14:07:11.311Z,82.20
2018-05-03T14:09:38.802Z,83.80
2018-05-03T14:12:06.358Z,81.60
2018-05-03T14:14:33.955Z,83.30
2018-05-03T14:17:02.967Z,83.60
2018-05-03T14:19:30.520Z,83.60
2018-05-03T14:21:58.026Z,83.90
2018-05-03T14:24:25.585Z,82.50
2018-05-03T14:26:53.131Z,83.40
2018-05-03T14:29:20.703Z,83.80
2018-05-03T14:31:48.236Z,83.20
2018-05-03T14:34:15.774Z,83.50
2018-05-03T14:36:43.270Z,83.40
2018-05-03T14:39:10.827Z,83.10
2018-05-03T14:41:38.321Z,81.70
2018-05-03T14:44:05.888Z,81.60
2018-05-03T14:46:33.572Z,81.50
2018-05-03T14:49:01.071Z,81.40
2018-05-03T14:51:28.639Z,82.50
2018-05-03T14:53:56.144Z,81.40
2018-05-03T14:56:23.991Z,82.30
2018-05-03T14:58:51.506Z,82.60
2018-05-03T15:01:19.173Z,83.10
2018-05-03T15:03:46.672Z,82.10
2018-05-03T15:06:14.213Z,82.00
2018-05-03T15:08:41.719Z,81.80
2018-05-03T15:11:09.275Z,82.30
2018-05-03T15:13:36.875Z,81.70
2018-05-03T15:16:04.533Z,82.50
2018-05-03T15:18:32.828Z,79.50
2018-05-03T15:21:00.361Z,79.50
2018-05-03T15:23:27.916Z,77.10
2018-05-03T15:25:55.464Z,76.30
2018-05-03T15:28:23.730Z,69.20
2018-05-03T15:30:51.287Z,69.20
2018-05-03T15:33:18.789Z,68.90
2018-05-03T15:35:46.305Z,68.30
2018-05-03T15:38:13.854Z,67.10
2018-05-03T15:40:41.366Z,64.40
2018-05-03T15:43:08.916Z,63.60
2018-05-03T15:45:36.427Z,61.50
2018-05-03T15:48:03.979Z,60.10
2018-05-03T15:50:31.490Z,58.30
2018-05-03T15:52:59.046Z,57.70
2018-05-03T15:55:26.563Z,57.30
2018-05-03T15:57:54.129Z,55.70
2018-05-03T16:00:21.649Z,54.80
2018-05-03T16:02:49.176Z,55.50
2018-05-03T16:05:16.732Z,51.80
2018-05-03T16:07:45.056Z,51.10
2018-05-03T16:10:12.620Z,51.00
2018-05-03T16:12:40.507Z,52.90
2018-05-03T16:15:08.079Z,53.10
2018-05-03T16:17:35.667Z,54.20
2018-05-03T16:20:03.201Z,56.10
2018-05-03T16:22:31.711Z,59.90
2018-05-03T16:24:59.244Z,59.90
2018-05-03T16:27:27.511Z,61.40
2018-05-03T16:29:55.045Z,61.30
2018-05-03T16:32:22.645Z,62.80
2018-05-03T16:34:51.076Z,63.70
2018-05-03T16:37:18.811Z,63.70
2018-05-03T16:39:46.798Z,64.20
2018-05-03T16:42:14.346Z,64.50
2018-05-03T16:44:42.117Z,64.40
2018-05-03T16:47:09.647Z,66.50
2018-05-03T16:49:38.050Z,68.10
2018-05-03T16:52:05.629Z,68.10
2018-05-03T16:54:33.143Z,68.40
2018-05-03T16:57:01.474Z,68.20
2018-05-03T16:59:28.982Z,68.20
2018-05-03T17:01:57.319Z,69.40
2018-05-03T17:04:24.825Z,69.40
2018-05-03T17:06:52.379Z,69.40
2018-05-03T17:09:20.672Z,70.20
2018-05-03T17:11:48.227Z,70.20
2018-05-03T17:14:15.763Z,69.50
2018-05-03T17:16:44.089Z,70.80
2018-05-03T17:19:11.595Z,70.80
2018-05-03T17:21:39.147Z,70.00
2018-05-03T17:24:07.428Z,71.80
2018-05-03T17:26:35.024Z,71.80
2018-05-03T17:29:02.528Z,72.10
2018-05-03T17:31:30.875Z,72.40
2018-05-03T17:33:58.358Z,72.30
2018-05-03T17:36:25.863Z,72.70
2018-05-03T17:38:53.398Z,72.40
2018-05-03T17:41:21.676Z,72.00
2018-05-03T17:43:49.982Z,72.90
2018-05-03T17:46:17.489Z,72.80
2018-05-03T17:48:45.057Z,72.80
2018-05-03T17:51:13.511Z,73.20
2018-05-03T17:53:41.060Z,73.20
2018-05-03T17:56:08.564Z,72.60
2018-05-03T17:58:36.101Z,72.70
2018-05-03T18:01:03.733Z,73.30
2018-05-03T18:03:31.268Z,73.20
2018-05-03T18:05:58.787Z,73.00
2018-05-03T18:08:26.395Z,73.80
2018-05-03T18:10:53.988Z,73.90
2018-05-03T18:13:21.434Z,74.10
2018-05-03T18:15:48.973Z,74.60
2018-05-03T18:18:16.473Z,74.70
2018-05-03T18:20:44.011Z,74.70
2018-05-03T18:23:11.520Z,73.70
2018-05-03T18:25:39.832Z,73.90
2018-05-03T18:28:07.420Z,73.90
2018-05-03T18:30:34.898Z,73.10
2018-05-03T18:33:02.459Z,73.30
2018-05-03T18:35:30.236Z,73.30
2018-05-03T18:37:58.548Z,73.10
2018-05-03T18:40:26.087Z,72.90
2018-05-03T18:42:53.598Z,72.90
2018-05-03T18:45:21.146Z,72.50
2018-05-03T18:47:48.647Z,72.90
2018-05-03T18:50:16.154Z,72.90
2018-05-03T18:52:43.690Z,73.10
2018-05-03T18:55:11.191Z,73.30
2018-05-03T18:57:38.724Z,72.80
2018-05-03T19:00:06.258Z,73.10
2018-05-03T19:02:33.892Z,73.10
2018-05-03T19:05:01.411Z,73.20
2018-05-03T19:07:29.061Z,73.40
2018-05-03T19:09:56.590Z,72.80
2018-05-03T19:12:24.263Z,72.60
2018-05-03T19:14:51.701Z,72.60
2018-05-03T19:17:19.248Z,72.90
2018-05-03T19:19:47.514Z,73.00
2018-05-03T19:22:15.051Z,73.00
2018-05-03T19:24:42.567Z,72.70
2018-05-03T19:27:10.279Z,72.80
2018-05-03T19:29:37.784Z,72.10
2018-05-03T19:32:06.055Z,72.80
2018-05-03T19:34:34.366Z,72.30
2018-05-03T19:37:01.883Z,72.30
2018-05-03T19:39:29.469Z,72.20
2018-05-03T19:41:57.024Z,72.60
2018-05-03T19:44:25.547Z,72.40
2018-05-03T19:46:53.090Z,72.40
2018-05-03T19:49:20.644Z,72.40
2018-05-03T19:51:48.164Z,72.70
2018-05-03T19:54:16.482Z,72.70
2018-05-03T19:56:44.003Z,72.70
2018-05-03T19:59:11.557Z,72.60
2018-05-03T20:01:39.831Z,72.60
2018-05-03T20:04:08.152Z,72.50
2018-05-03T20:06:35.706Z,72.50
2018-05-03T20:09:03.207Z,72.30
2018-05-03T20:11:30.745Z,72.70
2018-05-03T20:13:58.255Z,72.60
2018-05-03T20:16:25.822Z,72.30
2018-05-03T20:18:54.093Z,72.50
2018-05-03T20:21:22.462Z,72.30
2018-05-03T20:23:49.973Z,72.30
2018-05-03T20:26:17.540Z,72.20
2018-05-03T20:28:45.039Z,71.80
2018-05-03T20:31:12.582Z,72.20
2018-05-03T20:33:40.097Z,71.60
2018-05-03T20:36:07.659Z,72.00
2018-05-03T20:38:35.194Z,72.20
2018-05-03T20:41:03.529Z,72.20
2018-05-03T20:43:32.531Z,72.50
2018-05-03T20:46:01.007Z,72.70
2018-05-03T20:48:28.496Z,72.60
2018-05-03T20:50:56.782Z,72.70
2018-05-03T20:53:24.323Z,72.70
2018-05-03T20:55:51.904Z,72.80
2018-05-03T20:58:19.399Z,73.20
2018-05-03T21:00:47.060Z,73.70
2018-05-03T21:03:14.579Z,73.50
2018-05-03T21:05:42.090Z,73.50
2018-05-03T21:08:09.636Z,73.60
2018-05-03T21:10:37.136Z,73.50
2018-05-03T21:13:04.663Z,73.80
2018-05-03T21:15:32.189Z,73.90
2018-05-03T21:17:59.747Z,73.60
2018-05-03T21:20:27.236Z,73.90
2018-05-03T21:22:54.795Z,73.70
2018-05-03T21:25:22.306Z,73.60
2018-05-03T21:27:49.861Z,73.40
2018-05-03T21:30:18.162Z,74.80
2018-05-03T21:32:45.677Z,74.20
2018-05-03T21:35:13.230Z,74.20
2018-05-03T21:37:40.729Z,74.20
2018-05-03T21:40:08.366Z,74.30
2018-05-03T21:42:36.083Z,74.20
2018-05-03T21:45:03.704Z,73.90
2018-05-03T21:47:31.288Z,74.10
2018-05-03T21:49:58.843Z,72.90
2018-05-03T21:52:26.385Z,72.30
2018-05-03T21:54:54.722Z,71.40
2018-05-03T21:57:22.213Z,70.00
2018-05-03T21:59:50.540Z,69.30
2018-05-03T22:02:18.031Z,68.80
2018-05-03T22:04:45.578Z,68.10
2018-05-03T22:07:13.239Z,67.10
2018-05-03T22:09:41.038Z,67.50
2018-05-03T22:12:08.559Z,66.50
2018-05-03T22:14:36.103Z,66.60
2018-05-03T22:17:03.640Z,66.80
2018-05-03T22:19:32.912Z,65.20
2018-05-03T22:22:00.498Z,66.00
2018-05-03T22:24:28.025Z,65.80
2018-05-03T22:26:55.562Z,65.50
2018-05-03T22:29:23.131Z,65.20
2018-05-03T22:31:50.670Z,64.50
2018-05-03T22:34:18.179Z,64.80
2018-05-03T22:36:45.718Z,65.30
2018-05-03T22:39:13.201Z,65.40
2018-05-03T22:41:40.787Z,64.40
2018-05-03T22:44:08.364Z,64.70
2018-05-03T22:46:36.646Z,64.40
2018-05-03T22:49:04.826Z,64.50
2018-05-03T22:51:33.830Z,64.30
2018-05-03T22:54:02.144Z,64.40
2018-05-03T22:56:30.605Z,64.30
2018-05-03T22:59:00.149Z,64.20
2018-05-03T23:01:28.611Z,64.20
2018-05-03T23:03:56.792Z,64.30
2018-05-03T23:06:25.554Z,64.20
2018-05-03T23:08:53.862Z,64.20
2018-05-03T23:11:21.452Z,64.10
2018-05-03T23:13:50.653Z,64.50
2018-05-03T23:16:18.239Z,64.20
2018-05-03T23:18:49.287Z,64.50
2018-05-03T23:21:16.787Z,64.50
2018-05-03T23:23:44.310Z,65.00
2018-05-03T23:26:12.703Z,65.00
2018-05-03T23:28:40.256Z,65.00
2018-05-03T23:31:10.359Z,65.30
2018-05-03T23:33:38.626Z,65.30
2018-05-03T23:36:07.032Z,64.90
2018-05-03T23:38:34.527Z,64.90
2018-05-03T23:41:03.287Z,65.90
2018-05-03T23:43:30.787Z,65.30
2018-05-03T23:45:58.493Z,65.60
2018-05-03T23:48:26.000Z,65.50
2018-05-03T23:50:54.258Z,66.00
2018-05-03T23:53:21.754Z,65.40
2018-05-03T23:55:49.537Z,65.50
2018-05-03T23:58:17.029Z,65.60
